PWSweather.com
Personal Weather Stations
Station Observations
DW1039
Liberty & Fairfield Townships, Hamilton, OH 45011

Liberty & Fairfield TownshipsHamilton, OH 45011

Lat: 39.3933, Lon: -84.477

Elevation: 780

Station Type: Davis Vantage Pro2 (Daytime Fan Aspirated)

http://www.lfweathercenter.com/

High Low Average
Temperature 33.2°F0.7°C 11.8°F-11.2°C 22.0°F-5.6°C
Dew Point 17.3°F-8.2°C 9.4°F-12.6°C 13.7°F-10.2°C
Winds 7.0 mph 11.3 kmh Calm Calm 1.0 mph WSW1.6 kmh WSW
Wind Gusts 12.0 mph19.3 kmh -- 4.0 mph6.4 kmh
Humidity 91% 44% 73%
Pressure 30.56 in1034.9 mb 30.30 in1026.1 mb -
Precipitation 0.00 in0.0 mm - -
Hour Temp Dew Point Humidity Winds Wind Gusts Pressure Precip Precip Rate Daily Precip Total
12:01 AM 22.4°F-5.3°C 16.9°F-8.4°C 79% Calm Calm 3.0 mph4.8 kmh 30.30 in1026.1 mb 0.00 in0.0 mm 0.00 in/hr0.0 mm/hr 0.00 in0.0 mm
12:11 AM 22.0°F-5.6°C 16.5°F-8.6°C 79% 2.0 mph NW3.2 kmh NW 3.0 mph4.8 kmh 30.30 in1026.1 mb 0.00 in0.0 mm 0.00 in/hr0.0 mm/hr 0.00 in0.0 mm
12:21 AM 21.6°F-5.8°C 16.4°F-8.7°C 80% 2.0 mph NW3.2 kmh NW 4.0 mph6.4 kmh 30.31 in1026.4 mb 0.00 in0.0 mm 0.00 in/hr0.0 mm/hr 0.00 in0.0 mm
12:31 AM 21.3°F-5.9°C 16.1°F-8.8°C 80% 3.0 mph NW4.8 kmh NW 5.0 mph8.0 kmh 30.31 in1026.4 mb 0.00 in0.0 mm 0.00 in/hr0.0 mm/hr 0.00 in0.0 mm
12:51 AM 20.7°F-6.3°C 15.8°F-9.0°C 81% Calm Calm 4.0 mph6.4 kmh 30.31 in1026.4 mb 0.00 in0.0 mm 0.00 in/hr0.0 mm/hr 0.00 in0.0 mm
01:01 AM 20.3°F-6.5°C 15.7°F-9.1°C 82% 2.0 mph NNW3.2 kmh NNW 2.0 mph3.2 kmh 30.32 in1026.8 mb 0.00 in0.0 mm 0.00 in/hr0.0 mm/hr 0.00 in0.0 mm
01:11 AM 20.0°F-6.7°C 15.4°F-9.2°C 82% Calm Calm 3.0 mph4.8 kmh 30.32 in1026.8 mb 0.00 in0.0 mm 0.00 in/hr0.0 mm/hr 0.00 in0.0 mm
01:20 AM 19.8°F-6.8°C 15.2°F-9.3°C 82% 1.0 mph NNW1.6 kmh NNW 4.0 mph6.4 kmh 30.32 in1026.8 mb 0.00 in0.0 mm 0.00 in/hr0.0 mm/hr 0.00 in0.0 mm
01:30 AM 19.6°F-6.9°C 15.0°F-9.4°C 82% Calm Calm 4.0 mph6.4 kmh 30.33 in1027.1 mb 0.00 in0.0 mm 0.00 in/hr0.0 mm/hr 0.00 in0.0 mm
01:40 AM 19.3°F-7.1°C 15.0°F-9.4°C 83% Calm Calm 2.0 mph3.2 kmh 30.33 in1027.1 mb 0.00 in0.0 mm 0.00 in/hr0.0 mm/hr 0.00 in0.0 mm
01:50 AM 18.9°F-7.3°C 14.6°F-9.7°C 83% Calm Calm 1.0 mph1.6 kmh 30.34 in1027.4 mb 0.00 in0.0 mm 0.00 in/hr0.0 mm/hr 0.00 in0.0 mm
02:00 AM 18.4°F-7.6°C 14.4°F-9.8°C 84% Calm Calm 1.0 mph1.6 kmh 30.34 in1027.4 mb 0.00 in0.0 mm 0.00 in/hr0.0 mm/hr 0.00 in0.0 mm
02:10 AM 18.5°F-7.5°C 14.5°F-9.7°C 84% Calm Calm -- 30.34 in1027.4 mb 0.00 in0.0 mm 0.00 in/hr0.0 mm/hr 0.00 in0.0 mm
02:20 AM 17.8°F-7.9°C 13.8°F-10.1°C 84% Calm Calm 2.0 mph3.2 kmh 30.35 in1027.8 mb 0.00 in0.0 mm 0.00 in/hr0.0 mm/hr 0.00 in0.0 mm
02:30 AM 16.8°F-8.4°C 13.4°F-10.3°C 86% Calm Calm -- 30.35 in1027.8 mb 0.00 in0.0 mm 0.00 in/hr0.0 mm/hr 0.00 in0.0 mm
02:40 AM 16.1°F-8.8°C 12.9°F-10.6°C 87% Calm Calm -- 30.35 in1027.8 mb 0.00 in0.0 mm 0.00 in/hr0.0 mm/hr 0.00 in0.0 mm
02:50 AM 16.3°F-8.7°C 13.4°F-10.3°C 88% Calm Calm -- 30.36 in1028.1 mb 0.00 in0.0 mm 0.00 in/hr0.0 mm/hr 0.00 in0.0 mm
03:00 AM 16.6°F-8.6°C 13.7°F-10.2°C 88% Calm Calm -- 30.37 in1028.4 mb 0.00 in0.0 mm 0.00 in/hr0.0 mm/hr 0.00 in0.0 mm
03:10 AM 15.5°F-9.2°C 12.6°F-10.8°C 88% Calm Calm -- 30.37 in1028.4 mb 0.00 in0.0 mm 0.00 in/hr0.0 mm/hr 0.00 in0.0 mm
03:20 AM 15.1°F-9.4°C 12.5°F-10.8°C 89% Calm Calm -- 30.38 in1028.8 mb 0.00 in0.0 mm 0.00 in/hr0.0 mm/hr 0.00 in0.0 mm
03:30 AM 14.6°F-9.7°C 12.0°F-11.1°C 89% Calm Calm -- 30.38 in1028.8 mb 0.00 in0.0 mm 0.00 in/hr0.0 mm/hr 0.00 in0.0 mm
03:40 AM 14.4°F-9.8°C 12.0°F-11.1°C 90% Calm Calm -- 30.38 in1028.8 mb 0.00 in0.0 mm 0.00 in/hr0.0 mm/hr 0.00 in0.0 mm
03:50 AM 14.5°F-9.7°C 12.1°F-11.1°C 90% Calm Calm -- 30.39 in1029.1 mb 0.00 in0.0 mm 0.00 in/hr0.0 mm/hr 0.00 in0.0 mm
04:00 AM 15.9°F-8.9°C 13.5°F-10.3°C 90% Calm Calm 1.0 mph1.6 kmh 30.40 in1029.5 mb 0.00 in0.0 mm 0.00 in/hr0.0 mm/hr 0.00 in0.0 mm
04:10 AM 16.1°F-8.8°C 13.4°F-10.3°C 89% Calm Calm 2.0 mph3.2 kmh 30.40 in1029.5 mb 0.00 in0.0 mm 0.00 in/hr0.0 mm/hr 0.00 in0.0 mm
04:20 AM 16.1°F-8.8°C 13.2°F-10.4°C 88% Calm Calm 3.0 mph4.8 kmh 30.41 in1029.8 mb 0.00 in0.0 mm 0.00 in/hr0.0 mm/hr 0.00 in0.0 mm
04:30 AM 16.0°F-8.9°C 12.8°F-10.7°C 87% Calm Calm 1.0 mph1.6 kmh 30.41 in1029.8 mb 0.00 in0.0 mm 0.00 in/hr0.0 mm/hr 0.00 in0.0 mm
04:40 AM 16.0°F-8.9°C 13.1°F-10.5°C 88% 2.0 mph NW3.2 kmh NW 2.0 mph3.2 kmh 30.41 in1029.8 mb 0.00 in0.0 mm 0.00 in/hr0.0 mm/hr 0.00 in0.0 mm
04:50 AM 16.0°F-8.9°C 12.8°F-10.7°C 87% Calm Calm 3.0 mph4.8 kmh 30.41 in1029.8 mb 0.00 in0.0 mm 0.00 in/hr0.0 mm/hr 0.00 in0.0 mm
05:00 AM 15.8°F-9.0°C 12.6°F-10.8°C 87% Calm Calm 2.0 mph3.2 kmh 30.42 in1030.1 mb 0.00 in0.0 mm 0.00 in/hr0.0 mm/hr 0.00 in0.0 mm
05:10 AM 15.3°F-9.3°C 12.1°F-11.1°C 87% Calm Calm -- 30.43 in1030.5 mb 0.00 in0.0 mm 0.00 in/hr0.0 mm/hr 0.00 in0.0 mm
05:20 AM 15.1°F-9.4°C 11.9°F-11.2°C 87% Calm Calm -- 30.43 in1030.5 mb 0.00 in0.0 mm 0.00 in/hr0.0 mm/hr 0.00 in0.0 mm
05:30 AM 15.1°F-9.4°C 12.2°F-11.0°C 88% Calm Calm 2.0 mph3.2 kmh 30.43 in1030.5 mb 0.00 in0.0 mm 0.00 in/hr0.0 mm/hr 0.00 in0.0 mm
05:40 AM 15.2°F-9.3°C 12.0°F-11.1°C 87% Calm Calm -- 30.44 in1030.8 mb 0.00 in0.0 mm 0.00 in/hr0.0 mm/hr 0.00 in0.0 mm
05:50 AM 14.8°F-9.6°C 11.6°F-11.3°C 87% Calm Calm -- 30.44 in1030.8 mb 0.00 in0.0 mm 0.00 in/hr0.0 mm/hr 0.00 in0.0 mm
06:00 AM 14.5°F-9.7°C 11.6°F-11.3°C 88% Calm Calm -- 30.45 in1031.2 mb 0.00 in0.0 mm 0.00 in/hr0.0 mm/hr 0.00 in0.0 mm
06:10 AM 14.5°F-9.7°C 11.6°F-11.3°C 88% Calm Calm -- 30.45 in1031.2 mb 0.00 in0.0 mm 0.00 in/hr0.0 mm/hr 0.00 in0.0 mm
06:20 AM 13.7°F-10.2°C 10.8°F-11.8°C 88% Calm Calm -- 30.45 in1031.2 mb 0.00 in0.0 mm 0.00 in/hr0.0 mm/hr 0.00 in0.0 mm
06:30 AM 12.9°F-10.6°C 10.3°F-12.1°C 89% Calm Calm -- 30.46 in1031.5 mb 0.00 in0.0 mm 0.00 in/hr0.0 mm/hr 0.00 in0.0 mm
06:40 AM 12.7°F-10.7°C 10.1°F-12.2°C 89% Calm Calm -- 30.47 in1031.8 mb 0.00 in0.0 mm 0.00 in/hr0.0 mm/hr 0.00 in0.0 mm
06:50 AM 12.4°F-10.9°C 10.0°F-12.2°C 90% Calm Calm -- 30.47 in1031.8 mb 0.00 in0.0 mm 0.00 in/hr0.0 mm/hr 0.00 in0.0 mm
07:00 AM 12.6°F-10.8°C 10.2°F-12.1°C 90% Calm Calm -- 30.48 in1032.2 mb 0.00 in0.0 mm 0.00 in/hr0.0 mm/hr 0.00 in0.0 mm
07:10 AM 12.4°F-10.9°C 10.0°F-12.2°C 90% Calm Calm -- 30.48 in1032.2 mb 0.00 in0.0 mm 0.00 in/hr0.0 mm/hr 0.00 in0.0 mm
07:20 AM 12.2°F-11.0°C 9.8°F-12.3°C 90% Calm Calm -- 30.49 in1032.5 mb 0.00 in0.0 mm 0.00 in/hr0.0 mm/hr 0.00 in0.0 mm
07:30 AM 11.8°F-11.2°C 9.4°F-12.6°C 90% Calm Calm -- 30.49 in1032.5 mb 0.00 in0.0 mm 0.00 in/hr0.0 mm/hr 0.00 in0.0 mm
07:40 AM 11.9°F-11.2°C 9.5°F-12.5°C 90% Calm Calm -- 30.49 in1032.5 mb 0.00 in0.0 mm 0.00 in/hr0.0 mm/hr 0.00 in0.0 mm
07:50 AM 12.5°F-10.8°C 10.1°F-12.2°C 90% Calm Calm -- 30.50 in1032.8 mb 0.00 in0.0 mm 0.00 in/hr0.0 mm/hr 0.00 in0.0 mm
08:00 AM 12.4°F-10.9°C 10.0°F-12.2°C 90% Calm Calm -- 30.50 in1032.8 mb 0.00 in0.0 mm 0.00 in/hr0.0 mm/hr 0.00 in0.0 mm
08:10 AM 12.1°F-11.1°C 9.7°F-12.4°C 90% Calm Calm -- 30.50 in1032.8 mb 0.00 in0.0 mm 0.00 in/hr0.0 mm/hr 0.00 in0.0 mm
08:20 AM 12.4°F-10.9°C 10.0°F-12.2°C 90% Calm Calm -- 30.50 in1032.8 mb 0.00 in0.0 mm 0.00 in/hr0.0 mm/hr 0.00 in0.0 mm
08:30 AM 13.8°F-10.1°C 11.7°F-11.3°C 91% Calm Calm -- 30.51 in1033.2 mb 0.00 in0.0 mm 0.00 in/hr0.0 mm/hr 0.00 in0.0 mm
08:40 AM 14.9°F-9.5°C 12.5°F-10.8°C 90% Calm Calm -- 30.51 in1033.2 mb 0.00 in0.0 mm 0.00 in/hr0.0 mm/hr 0.00 in0.0 mm
08:50 AM 15.8°F-9.0°C 13.1°F-10.5°C 89% Calm Calm -- 30.52 in1033.5 mb 0.00 in0.0 mm 0.00 in/hr0.0 mm/hr 0.00 in0.0 mm
09:00 AM 16.6°F-8.6°C 13.7°F-10.2°C 88% Calm Calm 1.0 mph1.6 kmh 30.53 in1033.9 mb 0.00 in0.0 mm 0.00 in/hr0.0 mm/hr 0.00 in0.0 mm
09:10 AM 17.3°F-8.2°C 14.1°F-9.9°C 87% Calm Calm -- 30.53 in1033.9 mb 0.00 in0.0 mm 0.00 in/hr0.0 mm/hr 0.00 in0.0 mm
09:20 AM 17.7°F-7.9°C 14.2°F-9.9°C 86% Calm Calm 2.0 mph3.2 kmh 30.53 in1033.9 mb 0.00 in0.0 mm 0.00 in/hr0.0 mm/hr 0.00 in0.0 mm
09:30 AM 18.4°F-7.6°C 14.7°F-9.6°C 85% Calm Calm -- 30.53 in1033.9 mb 0.00 in0.0 mm 0.00 in/hr0.0 mm/hr 0.00 in0.0 mm
09:40 AM 18.6°F-7.4°C 14.3°F-9.8°C 83% Calm Calm 3.0 mph4.8 kmh 30.54 in1034.2 mb 0.00 in0.0 mm 0.00 in/hr0.0 mm/hr 0.00 in0.0 mm
09:50 AM 19.2°F-7.1°C 14.6°F-9.7°C 82% 1.0 mph SW1.6 kmh SW 4.0 mph6.4 kmh 30.55 in1034.5 mb 0.00 in0.0 mm 0.00 in/hr0.0 mm/hr 0.00 in0.0 mm
10:01 AM 19.6°F-6.9°C 14.7°F-9.6°C 81% Calm Calm 3.0 mph4.8 kmh 30.55 in1034.5 mb 0.00 in0.0 mm 0.00 in/hr0.0 mm/hr 0.00 in0.0 mm
10:10 AM 19.8°F-6.8°C 14.6°F-9.7°C 80% Calm Calm 3.0 mph4.8 kmh 30.55 in1034.5 mb 0.00 in0.0 mm 0.00 in/hr0.0 mm/hr 0.00 in0.0 mm
10:20 AM 20.6°F-6.3°C 14.8°F-9.6°C 78% 3.0 mph S4.8 kmh S 5.0 mph8.0 kmh 30.55 in1034.5 mb 0.00 in0.0 mm 0.00 in/hr0.0 mm/hr 0.00 in0.0 mm
10:30 AM 21.0°F-6.1°C 14.9°F-9.5°C 77% 1.0 mph SSW1.6 kmh SSW 4.0 mph6.4 kmh 30.56 in1034.9 mb 0.00 in0.0 mm 0.00 in/hr0.0 mm/hr 0.00 in0.0 mm
10:40 AM 21.7°F-5.7°C 15.9°F-8.9°C 78% Calm Calm 5.0 mph8.0 kmh 30.56 in1034.9 mb 0.00 in0.0 mm 0.00 in/hr0.0 mm/hr 0.00 in0.0 mm
10:50 AM 22.3°F-5.4°C 15.9°F-8.9°C 76% 2.0 mph SW3.2 kmh SW 4.0 mph6.4 kmh 30.56 in1034.9 mb 0.00 in0.0 mm 0.00 in/hr0.0 mm/hr 0.00 in0.0 mm
11:00 AM 22.8°F-5.1°C 14.8°F-9.6°C 71% 3.0 mph SSE4.8 kmh SSE 9.0 mph14.5 kmh 30.56 in1034.9 mb 0.00 in0.0 mm 0.00 in/hr0.0 mm/hr 0.00 in0.0 mm
11:10 AM 23.1°F-4.9°C 15.8°F-9.0°C 73% 5.0 mph SE8.0 kmh SE 7.0 mph11.3 kmh 30.56 in1034.9 mb 0.00 in0.0 mm 0.00 in/hr0.0 mm/hr 0.00 in0.0 mm
11:20 AM 23.2°F-4.9°C 15.5°F-9.2°C 72% 2.0 mph SE3.2 kmh SE 5.0 mph8.0 kmh 30.55 in1034.5 mb 0.00 in0.0 mm 0.00 in/hr0.0 mm/hr 0.00 in0.0 mm
11:30 AM 24.4°F-4.2°C 17.3°F-8.2°C 74% 7.0 mph SE11.3 kmh SE 7.0 mph11.3 kmh 30.55 in1034.5 mb 0.00 in0.0 mm 0.00 in/hr0.0 mm/hr 0.00 in0.0 mm
11:40 AM 23.9°F-4.5°C 15.2°F-9.3°C 69% 2.0 mph SW3.2 kmh SW 6.0 mph9.7 kmh 30.55 in1034.5 mb 0.00 in0.0 mm 0.00 in/hr0.0 mm/hr 0.00 in0.0 mm
11:50 AM 24.5°F-4.2°C 14.8°F-9.6°C 66% Calm Calm 7.0 mph11.3 kmh 30.54 in1034.2 mb 0.00 in0.0 mm 0.00 in/hr0.0 mm/hr 0.00 in0.0 mm
12:00 PM 25.3°F-3.7°C 14.8°F-9.6°C 64% 2.0 mph SSE3.2 kmh SSE 6.0 mph9.7 kmh 30.54 in1034.2 mb 0.00 in0.0 mm 0.00 in/hr0.0 mm/hr 0.00 in0.0 mm
12:10 PM 26.5°F-3.1°C 14.9°F-9.5°C 61% Calm Calm 6.0 mph9.7 kmh 30.52 in1033.5 mb 0.00 in0.0 mm 0.00 in/hr0.0 mm/hr 0.00 in0.0 mm
12:20 PM 26.9°F-2.8°C 14.1°F-9.9°C 58% 4.0 mph SSE6.4 kmh SSE 6.0 mph9.7 kmh 30.52 in1033.5 mb 0.00 in0.0 mm 0.00 in/hr0.0 mm/hr 0.00 in0.0 mm
12:30 PM 27.1°F-2.7°C 12.7°F-10.7°C 54% Calm Calm 10.0 mph16.1 kmh 30.51 in1033.2 mb 0.00 in0.0 mm 0.00 in/hr0.0 mm/hr 0.00 in0.0 mm
12:40 PM 27.6°F-2.4°C 14.8°F-9.6°C 58% 4.0 mph SE6.4 kmh SE 7.0 mph11.3 kmh 30.51 in1033.2 mb 0.00 in0.0 mm 0.00 in/hr0.0 mm/hr 0.00 in0.0 mm
12:50 PM 28.4°F-2.0°C 15.5°F-9.2°C 58% 2.0 mph SE3.2 kmh SE 11.0 mph17.7 kmh 30.51 in1033.2 mb 0.00 in0.0 mm 0.00 in/hr0.0 mm/hr 0.00 in0.0 mm
01:00 PM 28.5°F-1.9°C 14.4°F-9.8°C 55% Calm Calm 7.0 mph11.3 kmh 30.50 in1032.8 mb 0.00 in0.0 mm 0.00 in/hr0.0 mm/hr 0.00 in0.0 mm
01:10 PM 28.9°F-1.7°C 14.4°F-9.8°C 54% Calm Calm 6.0 mph9.7 kmh 30.50 in1032.8 mb 0.00 in0.0 mm 0.00 in/hr0.0 mm/hr 0.00 in0.0 mm
01:20 PM 30.2°F-1.0°C 13.8°F-10.1°C 50% 1.0 mph SW1.6 kmh SW 10.0 mph16.1 kmh 30.49 in1032.5 mb 0.00 in0.0 mm 0.00 in/hr0.0 mm/hr 0.00 in0.0 mm
01:30 PM 30.8°F-0.7°C 14.8°F-9.6°C 51% 6.0 mph S9.7 kmh S 7.0 mph11.3 kmh 30.49 in1032.5 mb 0.00 in0.0 mm 0.00 in/hr0.0 mm/hr 0.00 in0.0 mm
01:40 PM 30.2°F-1.0°C 14.3°F-9.8°C 51% 3.0 mph S4.8 kmh S 7.0 mph11.3 kmh 30.49 in1032.5 mb 0.00 in0.0 mm 0.00 in/hr0.0 mm/hr 0.00 in0.0 mm
01:50 PM 31.5°F-0.3°C 15.0°F-9.4°C 50% Calm Calm 9.0 mph14.5 kmh 30.48 in1032.2 mb 0.00 in0.0 mm 0.00 in/hr0.0 mm/hr 0.00 in0.0 mm
02:01 PM 31.1°F-0.5°C 12.8°F-10.7°C 46% 2.0 mph SSE3.2 kmh SSE 6.0 mph9.7 kmh 30.48 in1032.2 mb 0.00 in0.0 mm 0.00 in/hr0.0 mm/hr 0.00 in0.0 mm
02:10 PM 31.0°F-0.6°C 12.7°F-10.7°C 46% 3.0 mph SSW4.8 kmh SSW 6.0 mph9.7 kmh 30.48 in1032.2 mb 0.00 in0.0 mm 0.00 in/hr0.0 mm/hr 0.00 in0.0 mm
02:20 PM 31.9°F-0.1°C 14.0°F-10.0°C 47% 1.0 mph S1.6 kmh S 10.0 mph16.1 kmh 30.48 in1032.2 mb 0.00 in0.0 mm 0.00 in/hr0.0 mm/hr 0.00 in0.0 mm
02:30 PM 31.9°F-0.1°C 14.0°F-10.0°C 47% 6.0 mph S9.7 kmh S 11.0 mph17.7 kmh 30.49 in1032.5 mb 0.00 in0.0 mm 0.00 in/hr0.0 mm/hr 0.00 in0.0 mm
02:40 PM 31.7°F-0.2°C 13.3°F-10.4°C 46% 3.0 mph SSW4.8 kmh SSW 12.0 mph19.3 kmh 30.48 in1032.2 mb 0.00 in0.0 mm 0.00 in/hr0.0 mm/hr 0.00 in0.0 mm
02:50 PM 32.3°F0.2°C 14.8°F-9.6°C 48% 6.0 mph SE9.7 kmh SE 6.0 mph9.7 kmh 30.48 in1032.2 mb 0.00 in0.0 mm 0.00 in/hr0.0 mm/hr 0.00 in0.0 mm
03:00 PM 32.4°F0.2°C 13.9°F-10.1°C 46% Calm Calm 9.0 mph14.5 kmh 30.49 in1032.5 mb 0.00 in0.0 mm 0.00 in/hr0.0 mm/hr 0.00 in0.0 mm
03:10 PM 32.2°F0.1°C 13.8°F-10.1°C 46% 3.0 mph SE4.8 kmh SE 9.0 mph14.5 kmh 30.49 in1032.5 mb 0.00 in0.0 mm 0.00 in/hr0.0 mm/hr 0.00 in0.0 mm
03:20 PM 32.3°F0.2°C 13.9°F-10.1°C 46% 2.0 mph SW3.2 kmh SW 11.0 mph17.7 kmh 30.48 in1032.2 mb 0.00 in0.0 mm 0.00 in/hr0.0 mm/hr 0.00 in0.0 mm
03:30 PM 32.6°F0.3°C 13.6°F-10.2°C 45% Calm Calm 11.0 mph17.7 kmh 30.48 in1032.2 mb 0.00 in0.0 mm 0.00 in/hr0.0 mm/hr 0.00 in0.0 mm
03:40 PM 33.2°F0.7°C 15.2°F-9.3°C 47% 1.0 mph SE1.6 kmh SE 6.0 mph9.7 kmh 30.48 in1032.2 mb 0.00 in0.0 mm 0.00 in/hr0.0 mm/hr 0.00 in0.0 mm
03:50 PM 32.9°F0.5°C 14.9°F-9.5°C 47% 3.0 mph SE4.8 kmh SE 7.0 mph11.3 kmh 30.47 in1031.8 mb 0.00 in0.0 mm 0.00 in/hr0.0 mm/hr 0.00 in0.0 mm
04:01 PM 33.1°F0.6°C 13.6°F-10.2°C 44% 4.0 mph SSW6.4 kmh SSW 12.0 mph19.3 kmh 30.47 in1031.8 mb 0.00 in0.0 mm 0.00 in/hr0.0 mm/hr 0.00 in0.0 mm
04:10 PM 32.7°F0.4°C 14.2°F-9.9°C 46% 4.0 mph SSE6.4 kmh SSE 10.0 mph16.1 kmh 30.47 in1031.8 mb 0.00 in0.0 mm 0.00 in/hr0.0 mm/hr 0.00 in0.0 mm
04:20 PM 32.3°F0.2°C 14.3°F-9.8°C 47% 1.0 mph SSE1.6 kmh SSE 12.0 mph19.3 kmh 30.47 in1031.8 mb 0.00 in0.0 mm 0.00 in/hr0.0 mm/hr 0.00 in0.0 mm
04:30 PM 32.1°F0.1°C 13.7°F-10.2°C 46% 3.0 mph SSE4.8 kmh SSE 11.0 mph17.7 kmh 30.47 in1031.8 mb 0.00 in0.0 mm 0.00 in/hr0.0 mm/hr 0.00 in0.0 mm
04:40 PM 31.8°F-0.1°C 12.9°F-10.6°C 45% 7.0 mph S11.3 kmh S 10.0 mph16.1 kmh 30.47 in1031.8 mb 0.00 in0.0 mm 0.00 in/hr0.0 mm/hr 0.00 in0.0 mm
04:50 PM 31.8°F-0.1°C 13.9°F-10.1°C 47% 5.0 mph S8.0 kmh S 10.0 mph16.1 kmh 30.47 in1031.8 mb 0.00 in0.0 mm 0.00 in/hr0.0 mm/hr 0.00 in0.0 mm
05:00 PM 31.5°F-0.3°C 15.5°F-9.2°C 51% 5.0 mph SE8.0 kmh SE 7.0 mph11.3 kmh 30.47 in1031.8 mb 0.00 in0.0 mm 0.00 in/hr0.0 mm/hr 0.00 in0.0 mm
05:10 PM 31.2°F-0.4°C 15.2°F-9.3°C 51% 2.0 mph SSE3.2 kmh SSE 10.0 mph16.1 kmh 30.46 in1031.5 mb 0.00 in0.0 mm 0.00 in/hr0.0 mm/hr 0.00 in0.0 mm
05:20 PM 31.0°F-0.6°C 15.5°F-9.2°C 52% 2.0 mph SSE3.2 kmh SSE 7.0 mph11.3 kmh 30.47 in1031.8 mb 0.00 in0.0 mm 0.00 in/hr0.0 mm/hr 0.00 in0.0 mm
05:30 PM 30.8°F-0.7°C 15.7°F-9.1°C 53% 4.0 mph SSE6.4 kmh SSE 7.0 mph11.3 kmh 30.47 in1031.8 mb 0.00 in0.0 mm 0.00 in/hr0.0 mm/hr 0.00 in0.0 mm
05:40 PM 30.3°F-0.9°C 16.1°F-8.8°C 55% Calm Calm 6.0 mph9.7 kmh 30.48 in1032.2 mb 0.00 in0.0 mm 0.00 in/hr0.0 mm/hr 0.00 in0.0 mm
05:50 PM 29.9°F-1.2°C 15.7°F-9.1°C 55% Calm Calm 4.0 mph6.4 kmh 30.48 in1032.2 mb 0.00 in0.0 mm 0.00 in/hr0.0 mm/hr 0.00 in0.0 mm
06:01 PM 29.6°F-1.3°C 16.3°F-8.7°C 57% Calm Calm 3.0 mph4.8 kmh 30.48 in1032.2 mb 0.00 in0.0 mm 0.00 in/hr0.0 mm/hr 0.00 in0.0 mm
06:10 PM 29.1°F-1.6°C 16.2°F-8.8°C 58% Calm Calm 4.0 mph6.4 kmh 30.48 in1032.2 mb 0.00 in0.0 mm 0.00 in/hr0.0 mm/hr 0.00 in0.0 mm
06:20 PM 29.1°F-1.6°C 16.6°F-8.6°C 59% 6.0 mph SE9.7 kmh SE 8.0 mph12.9 kmh 30.48 in1032.2 mb 0.00 in0.0 mm 0.00 in/hr0.0 mm/hr 0.00 in0.0 mm
06:30 PM 29.2°F-1.6°C 16.7°F-8.5°C 59% 3.0 mph SE4.8 kmh SE 4.0 mph6.4 kmh 30.48 in1032.2 mb 0.00 in0.0 mm 0.00 in/hr0.0 mm/hr 0.00 in0.0 mm
06:40 PM 29.3°F-1.5°C 17.2°F-8.2°C 60% 3.0 mph SE4.8 kmh SE 6.0 mph9.7 kmh 30.47 in1031.8 mb 0.00 in0.0 mm 0.00 in/hr0.0 mm/hr 0.00 in0.0 mm
06:50 PM 29.2°F-1.6°C 17.4°F-8.1°C 61% 3.0 mph SE4.8 kmh SE 11.0 mph17.7 kmh 30.47 in1031.8 mb 0.00 in0.0 mm 0.00 in/hr0.0 mm/hr 0.00 in0.0 mm
07:00 PM 28.9°F-1.7°C 17.5°F-8.1°C 62% 3.0 mph SE4.8 kmh SE 10.0 mph16.1 kmh 30.46 in1031.5 mb 0.00 in0.0 mm 0.00 in/hr0.0 mm/hr 0.00 in0.0 mm
07:10 PM 28.9°F-1.7°C 17.9°F-7.8°C 63% 4.0 mph SE6.4 kmh SE 7.0 mph11.3 kmh 30.46 in1031.5 mb 0.00 in0.0 mm 0.00 in/hr0.0 mm/hr 0.00 in0.0 mm
07:20 PM 28.5°F-1.9°C 17.9°F-7.8°C 64% 7.0 mph SE11.3 kmh SE 7.0 mph11.3 kmh 30.47 in1031.8 mb 0.00 in0.0 mm 0.00 in/hr0.0 mm/hr 0.00 in0.0 mm
07:30 PM 28.5°F-1.9°C 18.6°F-7.4°C 66% 11.0 mph SE17.7 kmh SE 11.0 mph17.7 kmh 30.46 in1031.5 mb 0.00 in0.0 mm 0.00 in/hr0.0 mm/hr 0.00 in0.0 mm
07:40 PM 28.5°F-1.9°C 18.6°F-7.4°C 66% 3.0 mph S4.8 kmh S 9.0 mph14.5 kmh 30.46 in1031.5 mb 0.00 in0.0 mm 0.00 in/hr0.0 mm/hr 0.00 in0.0 mm
07:50 PM 28.2°F-2.1°C 19.4°F-7.0°C 69% 3.0 mph SSE4.8 kmh SSE 7.0 mph11.3 kmh 30.46 in1031.5 mb 0.00 in0.0 mm 0.00 in/hr0.0 mm/hr 0.00 in0.0 mm
08:01 PM 28.0°F-2.2°C 19.5°F-6.9°C 70% 3.0 mph SE4.8 kmh SE 7.0 mph11.3 kmh 30.45 in1031.2 mb 0.00 in0.0 mm 0.00 in/hr0.0 mm/hr 0.00 in0.0 mm
08:10 PM 28.0°F-2.2°C 19.8°F-6.8°C 71% 7.0 mph SE11.3 kmh SE 10.0 mph16.1 kmh 30.44 in1030.8 mb 0.00 in0.0 mm 0.00 in/hr0.0 mm/hr 0.00 in0.0 mm
08:20 PM 27.9°F-2.3°C 20.1°F-6.6°C 72% 5.0 mph SE8.0 kmh SE 10.0 mph16.1 kmh 30.43 in1030.5 mb 0.00 in0.0 mm 0.00 in/hr0.0 mm/hr 0.00 in0.0 mm
08:30 PM 27.9°F-2.3°C 20.1°F-6.6°C 72% 7.0 mph SE11.3 kmh SE 12.0 mph19.3 kmh 30.43 in1030.5 mb 0.00 in0.0 mm 0.00 in/hr0.0 mm/hr 0.00 in0.0 mm
08:40 PM 28.0°F-2.2°C 20.2°F-6.6°C 72% 2.0 mph SE3.2 kmh SE 12.0 mph19.3 kmh 30.43 in1030.5 mb 0.00 in0.0 mm 0.00 in/hr0.0 mm/hr 0.00 in0.0 mm
08:50 PM 27.8°F-2.3°C 20.3°F-6.5°C 73% 7.0 mph SE11.3 kmh SE 8.0 mph12.9 kmh 30.43 in1030.5 mb 0.00 in0.0 mm 0.00 in/hr0.0 mm/hr 0.00 in0.0 mm
09:00 PM 27.5°F-2.5°C 20.3°F-6.5°C 74% 3.0 mph SE4.8 kmh SE 10.0 mph16.1 kmh 30.43 in1030.5 mb 0.00 in0.0 mm 0.00 in/hr0.0 mm/hr 0.00 in0.0 mm
09:10 PM 27.4°F-2.6°C 20.5°F-6.4°C 75% 3.0 mph SE4.8 kmh SE 10.0 mph16.1 kmh 30.43 in1030.5 mb 0.00 in0.0 mm 0.00 in/hr0.0 mm/hr 0.00 in0.0 mm
09:20 PM 27.2°F-2.7°C 20.3°F-6.5°C 75% 6.0 mph SE9.7 kmh SE 8.0 mph12.9 kmh 30.43 in1030.5 mb 0.00 in0.0 mm 0.00 in/hr0.0 mm/hr 0.00 in0.0 mm
09:30 PM 27.1°F-2.7°C 20.6°F-6.3°C 76% 6.0 mph SE9.7 kmh SE 10.0 mph16.1 kmh 30.42 in1030.1 mb 0.00 in0.0 mm 0.00 in/hr0.0 mm/hr 0.00 in0.0 mm
09:40 PM 26.9°F-2.8°C 20.7°F-6.3°C 77% 3.0 mph SE4.8 kmh SE 9.0 mph14.5 kmh 30.41 in1029.8 mb 0.00 in0.0 mm 0.00 in/hr0.0 mm/hr 0.00 in0.0 mm
09:50 PM 27.0°F-2.8°C 20.8°F-6.2°C 77% 3.0 mph SE4.8 kmh SE 7.0 mph11.3 kmh 30.42 in1030.1 mb 0.00 in0.0 mm 0.00 in/hr0.0 mm/hr 0.00 in0.0 mm
10:00 PM 26.5°F-3.1°C 20.6°F-6.3°C 78% Calm Calm 3.0 mph4.8 kmh 30.43 in1030.5 mb 0.00 in0.0 mm 0.00 in/hr0.0 mm/hr 0.00 in0.0 mm
10:10 PM 26.4°F-3.1°C 20.5°F-6.4°C 78% Calm Calm 4.0 mph6.4 kmh 30.43 in1030.5 mb 0.00 in0.0 mm 0.00 in/hr0.0 mm/hr 0.00 in0.0 mm
10:20 PM 26.2°F-3.2°C 20.6°F-6.3°C 79% Calm Calm 6.0 mph9.7 kmh 30.42 in1030.1 mb 0.00 in0.0 mm 0.00 in/hr0.0 mm/hr 0.00 in0.0 mm
10:30 PM 26.1°F-3.3°C 20.8°F-6.2°C 80% Calm Calm 5.0 mph8.0 kmh 30.41 in1029.8 mb 0.00 in0.0 mm 0.00 in/hr0.0 mm/hr 0.00 in0.0 mm
10:40 PM 26.3°F-3.2°C 21.0°F-6.1°C 80% 3.0 mph SE4.8 kmh SE 6.0 mph9.7 kmh 30.40 in1029.5 mb 0.00 in0.0 mm 0.00 in/hr0.0 mm/hr 0.00 in0.0 mm
10:50 PM 26.4°F-3.1°C 21.1°F-6.1°C 80% 5.0 mph SE8.0 kmh SE 10.0 mph16.1 kmh 30.40 in1029.5 mb 0.00 in0.0 mm 0.00 in/hr0.0 mm/hr 0.00 in0.0 mm
11:00 PM 26.6°F-3.0°C 21.3°F-5.9°C 80% 3.0 mph SE4.8 kmh SE 10.0 mph16.1 kmh 30.40 in1029.5 mb 0.00 in0.0 mm 0.00 in/hr0.0 mm/hr 0.00 in0.0 mm
11:10 PM 26.8°F-2.9°C 21.5°F-5.8°C 80% 2.0 mph SE3.2 kmh SE 11.0 mph17.7 kmh 30.39 in1029.1 mb 0.00 in0.0 mm 0.00 in/hr0.0 mm/hr 0.00 in0.0 mm
11:20 PM 26.8°F-2.9°C 21.5°F-5.8°C 80% 7.0 mph SE11.3 kmh SE 11.0 mph17.7 kmh 30.38 in1028.8 mb 0.00 in0.0 mm 0.00 in/hr0.0 mm/hr 0.00 in0.0 mm
11:30 PM 26.7°F-2.9°C 21.4°F-5.9°C 80% 6.0 mph SSE9.7 kmh SSE 9.0 mph14.5 kmh 30.38 in1028.8 mb 0.00 in0.0 mm 0.00 in/hr0.0 mm/hr 0.00 in0.0 mm
11:40 PM 26.5°F-3.1°C 21.5°F-5.8°C 81% 5.0 mph SE8.0 kmh SE 9.0 mph14.5 kmh 30.37 in1028.4 mb 0.00 in0.0 mm 0.00 in/hr0.0 mm/hr 0.00 in0.0 mm
11:50 PM 26.6°F-3.0°C 21.6°F-5.8°C 81% 6.0 mph SE9.7 kmh SE 9.0 mph14.5 kmh 30.36 in1028.1 mb 0.00 in0.0 mm 0.00 in/hr0.0 mm/hr 0.00 in0.0 mm